sensor_id;sensor_type;location;lat;lon;timestamp;temperature;humidity
81935;DHT22;71405;47.674;-2.050;2023-09-18T00:01:56;23.00;70.20
81935;DHT22;71405;47.674;-2.050;2023-09-18T00:04:22;23.00;70.30
81935;DHT22;71405;47.674;-2.050;2023-09-18T00:06:48;23.00;70.20
81935;DHT22;71405;47.674;-2.050;2023-09-18T00:09:13;23.00;70.30
81935;DHT22;71405;47.674;-2.050;2023-09-18T00:11:40;23.00;70.30
81935;DHT22;71405;47.674;-2.050;2023-09-18T00:14:07;23.00;70.30
81935;DHT22;71405;47.674;-2.050;2023-09-18T00:16:32;22.90;70.20
81935;DHT22;71405;47.674;-2.050;2023-09-18T00:18:58;23.00;70.40
81935;DHT22;71405;47.674;-2.050;2023-09-18T00:21:24;23.00;70.30
81935;DHT22;71405;47.674;-2.050;2023-09-18T00:23:56;22.90;70.30
81935;DHT22;71405;47.674;-2.050;2023-09-18T00:26:22;23.00;70.30
81935;DHT22;71405;47.674;-2.050;2023-09-18T00:28:48;22.90;70.40
81935;DHT22;71405;47.674;-2.050;2023-09-18T00:31:13;22.90;70.30
81935;DHT22;71405;47.674;-2.050;2023-09-18T00:33:39;23.00;70.30
81935;DHT22;71405;47.674;-2.050;2023-09-18T00:36:05;22.90;70.30
81935;DHT22;71405;47.674;-2.050;2023-09-18T00:38:31;22.90;70.20
81935;DHT22;71405;47.674;-2.050;2023-09-18T00:40:56;23.00;70.30
81935;DHT22;71405;47.674;-2.050;2023-09-18T00:43:22;22.90;70.20
81935;DHT22;71405;47.674;-2.050;2023-09-18T00:45:48;22.90;70.20
81935;DHT22;71405;47.674;-2.050;2023-09-18T00:48:17;22.90;70.20
81935;DHT22;71405;47.674;-2.050;2023-09-18T00:50:46;22.90;70.30
81935;DHT22;71405;47.674;-2.050;2023-09-18T00:53:19;22.90;70.20
81935;DHT22;71405;47.674;-2.050;2023-09-18T00:55:46;22.90;70.20
81935;DHT22;71405;47.674;-2.050;2023-09-18T00:58:11;22.90;70.20
81935;DHT22;71405;47.674;-2.050;2023-09-18T01:00:37;22.90;70.20
81935;DHT22;71405;47.674;-2.050;2023-09-18T01:03:04;22.90;70.20
81935;DHT22;71405;47.674;-2.050;2023-09-18T01:05:33;22.90;70.30
81935;DHT22;71405;47.674;-2.050;2023-09-18T01:07:59;22.90;70.20
81935;DHT22;71405;47.674;-2.050;2023-09-18T01:10:30;22.90;70.30
81935;DHT22;71405;47.674;-2.050;2023-09-18T01:13:08;22.90;70.30
81935;DHT22;71405;47.674;-2.050;2023-09-18T01:15:48;22.90;70.30
81935;DHT22;71405;47.674;-2.050;2023-09-18T01:18:14;22.90;70.30
81935;DHT22;71405;47.674;-2.050;2023-09-18T01:20:39;22.90;70.30
81935;DHT22;71405;47.674;-2.050;2023-09-18T01:23:05;22.90;70.30
81935;DHT22;71405;47.674;-2.050;2023-09-18T01:25:31;22.90;70.40
81935;DHT22;71405;47.674;-2.050;2023-09-18T01:27:58;22.90;70.30
81935;DHT22;71405;47.674;-2.050;2023-09-18T01:30:24;22.90;70.40
81935;DHT22;71405;47.674;-2.050;2023-09-18T01:32:50;22.90;70.40
81935;DHT22;71405;47.674;-2.050;2023-09-18T01:35:16;22.90;70.40
81935;DHT22;71405;47.674;-2.050;2023-09-18T01:37:43;22.90;70.50
81935;DHT22;71405;47.674;-2.050;2023-09-18T01:40:10;22.90;70.40
81935;DHT22;71405;47.674;-2.050;2023-09-18T01:42:36;22.90;70.50
81935;DHT22;71405;47.674;-2.050;2023-09-18T01:45:03;22.90;70.30
81935;DHT22;71405;47.674;-2.050;2023-09-18T01:47:30;22.90;70.50
81935;DHT22;71405;47.674;-2.050;2023-09-18T01:49:56;22.90;70.40
81935;DHT22;71405;47.674;-2.050;2023-09-18T01:52:22;22.90;70.40
81935;DHT22;71405;47.674;-2.050;2023-09-18T01:54:47;22.90;70.40
81935;DHT22;71405;47.674;-2.050;2023-09-18T01:57:14;22.90;70.40
81935;DHT22;71405;47.674;-2.050;2023-09-18T01:59:39;22.90;70.40
81935;DHT22;71405;47.674;-2.050;2023-09-18T02:02:07;22.90;70.30
81935;DHT22;71405;47.674;-2.050;2023-09-18T02:04:33;22.90;70.40
81935;DHT22;71405;47.674;-2.050;2023-09-18T02:06:58;22.90;70.40
81935;DHT22;71405;47.674;-2.050;2023-09-18T02:09:24;22.90;70.30
81935;DHT22;71405;47.674;-2.050;2023-09-18T02:11:50;22.90;70.30
81935;DHT22;71405;47.674;-2.050;2023-09-18T02:14:16;22.90;70.20
81935;DHT22;71405;47.674;-2.050;2023-09-18T02:16:43;22.90;70.30
81935;DHT22;71405;47.674;-2.050;2023-09-18T02:19:10;22.90;70.30
81935;DHT22;71405;47.674;-2.050;2023-09-18T02:21:36;22.90;70.30
81935;DHT22;71405;47.674;-2.050;2023-09-18T02:24:02;22.90;70.40
81935;DHT22;71405;47.674;-2.050;2023-09-18T02:26:29;22.80;70.40
81935;DHT22;71405;47.674;-2.050;2023-09-18T02:28:57;22.90;70.30
81935;DHT22;71405;47.674;-2.050;2023-09-18T02:31:23;22.90;70.30
81935;DHT22;71405;47.674;-2.050;2023-09-18T02:33:49;22.90;70.30
81935;DHT22;71405;47.674;-2.050;2023-09-18T02:36:15;22.80;70.40
81935;DHT22;71405;47.674;-2.050;2023-09-18T02:38:41;22.90;70.40
81935;DHT22;71405;47.674;-2.050;2023-09-18T02:41:07;22.80;70.30
81935;DHT22;71405;47.674;-2.050;2023-09-18T02:43:32;22.80;70.30
81935;DHT22;71405;47.674;-2.050;2023-09-18T02:45:58;22.80;70.40
81935;DHT22;71405;47.674;-2.050;2023-09-18T02:48:24;22.80;70.40
81935;DHT22;71405;47.674;-2.050;2023-09-18T02:50:50;22.80;70.20
81935;DHT22;71405;47.674;-2.050;2023-09-18T02:53:23;22.80;70.30
81935;DHT22;71405;47.674;-2.050;2023-09-18T02:55:50;22.80;70.30
81935;DHT22;71405;47.674;-2.050;2023-09-18T02:58:17;22.80;70.40
81935;DHT22;71405;47.674;-2.050;2023-09-18T03:00:45;22.80;70.40
81935;DHT22;71405;47.674;-2.050;2023-09-18T03:03:12;22.80;70.40
81935;DHT22;71405;47.674;-2.050;2023-09-18T03:05:38;22.80;70.40
81935;DHT22;71405;47.674;-2.050;2023-09-18T03:08:04;22.80;70.40
81935;DHT22;71405;47.674;-2.050;2023-09-18T03:10:34;22.80;70.30
81935;DHT22;71405;47.674;-2.050;2023-09-18T03:13:03;22.80;70.40
81935;DHT22;71405;47.674;-2.050;2023-09-18T03:15:30;22.80;70.40
81935;DHT22;71405;47.674;-2.050;2023-09-18T03:17:56;22.80;70.30
81935;DHT22;71405;47.674;-2.050;2023-09-18T03:20:23;22.80;70.30
81935;DHT22;71405;47.674;-2.050;2023-09-18T03:22:50;22.80;70.30
81935;DHT22;71405;47.674;-2.050;2023-09-18T03:25:16;22.80;70.30
81935;DHT22;71405;47.674;-2.050;2023-09-18T03:27:42;22.80;70.40
81935;DHT22;71405;47.674;-2.050;2023-09-18T03:30:08;22.80;70.30
81935;DHT22;71405;47.674;-2.050;2023-09-18T03:32:34;22.80;70.40
81935;DHT22;71405;47.674;-2.050;2023-09-18T03:35:00;22.80;70.30
81935;DHT22;71405;47.674;-2.050;2023-09-18T03:37:26;22.80;70.30
81935;DHT22;71405;47.674;-2.050;2023-09-18T03:39:51;22.80;70.20
81935;DHT22;71405;47.674;-2.050;2023-09-18T03:42:17;22.80;70.30
81935;DHT22;71405;47.674;-2.050;2023-09-18T03:44:42;22.80;70.40
81935;DHT22;71405;47.674;-2.050;2023-09-18T03:47:08;22.80;70.30
81935;DHT22;71405;47.674;-2.050;2023-09-18T03:49:34;22.80;70.40
81935;DHT22;71405;47.674;-2.050;2023-09-18T03:51:59;22.80;70.40
81935;DHT22;71405;47.674;-2.050;2023-09-18T03:54:25;22.80;70.30
81935;DHT22;71405;47.674;-2.050;2023-09-18T03:56:51;22.80;70.30
81935;DHT22;71405;47.674;-2.050;2023-09-18T03:59:16;22.80;70.30
81935;DHT22;71405;47.674;-2.050;2023-09-18T04:01:42;22.80;70.30
81935;DHT22;71405;47.674;-2.050;2023-09-18T04:04:07;22.80;70.30
81935;DHT22;71405;47.674;-2.050;2023-09-18T04:06:44;22.80;70.30
81935;DHT22;71405;47.674;-2.050;2023-09-18T04:09:11;22.80;70.40
81935;DHT22;71405;47.674;-2.050;2023-09-18T04:11:37;22.80;70.30
81935;DHT22;71405;47.674;-2.050;2023-09-18T04:14:03;22.80;70.30
81935;DHT22;71405;47.674;-2.050;2023-09-18T04:16:29;22.80;70.30
81935;DHT22;71405;47.674;-2.050;2023-09-18T04:19:01;22.80;70.30
81935;DHT22;71405;47.674;-2.050;2023-09-18T04:21:27;22.80;70.30
81935;DHT22;71405;47.674;-2.050;2023-09-18T04:23:55;22.80;70.30
81935;DHT22;71405;47.674;-2.050;2023-09-18T04:26:27;22.80;70.20
81935;DHT22;71405;47.674;-2.050;2023-09-18T04:29:00;22.80;70.20
81935;DHT22;71405;47.674;-2.050;2023-09-18T04:31:26;22.80;70.20
81935;DHT22;71405;47.674;-2.050;2023-09-18T04:33:53;22.80;70.20
81935;DHT22;71405;47.674;-2.050;2023-09-18T04:36:19;22.80;70.20
81935;DHT22;71405;47.674;-2.050;2023-09-18T04:38:45;22.80;70.10
81935;DHT22;71405;47.674;-2.050;2023-09-18T04:41:11;22.80;70.10
81935;DHT22;71405;47.674;-2.050;2023-09-18T04:43:39;22.80;70.10
81935;DHT22;71405;47.674;-2.050;2023-09-18T04:46:05;22.70;70.20
81935;DHT22;71405;47.674;-2.050;2023-09-18T04:48:31;22.70;70.20
81935;DHT22;71405;47.674;-2.050;2023-09-18T04:50:57;22.70;70.20
81935;DHT22;71405;47.674;-2.050;2023-09-18T04:53:24;22.70;70.20
81935;DHT22;71405;47.674;-2.050;2023-09-18T04:55:49;22.80;70.20
81935;DHT22;71405;47.674;-2.050;2023-09-18T04:58:16;22.80;70.20
81935;DHT22;71405;47.674;-2.050;2023-09-18T05:00:43;22.70;70.30
81935;DHT22;71405;47.674;-2.050;2023-09-18T05:03:09;22.70;70.40
81935;DHT22;71405;47.674;-2.050;2023-09-18T05:05:35;22.70;70.30
81935;DHT22;71405;47.674;-2.050;2023-09-18T05:08:06;22.70;70.30
81935;DHT22;71405;47.674;-2.050;2023-09-18T05:10:35;22.70;70.30
81935;DHT22;71405;47.674;-2.050;2023-09-18T05:13:02;22.60;70.40
81935;DHT22;71405;47.674;-2.050;2023-09-18T05:15:28;22.60;70.40
81935;DHT22;71405;47.674;-2.050;2023-09-18T05:17:58;22.60;70.50
81935;DHT22;71405;47.674;-2.050;2023-09-18T05:20:25;22.60;70.40
81935;DHT22;71405;47.674;-2.050;2023-09-18T05:22:54;22.60;70.50
81935;DHT22;71405;47.674;-2.050;2023-09-18T05:25:22;22.60;70.50
81935;DHT22;71405;47.674;-2.050;2023-09-18T05:27:48;22.60;70.50
81935;DHT22;71405;47.674;-2.050;2023-09-18T05:30:18;22.60;70.50
81935;DHT22;71405;47.674;-2.050;2023-09-18T05:32:46;22.60;70.50
81935;DHT22;71405;47.674;-2.050;2023-09-18T05:35:13;22.60;70.70
81935;DHT22;71405;47.674;-2.050;2023-09-18T05:37:40;22.60;70.50
81935;DHT22;71405;47.674;-2.050;2023-09-18T05:40:07;22.60;70.50
81935;DHT22;71405;47.674;-2.050;2023-09-18T05:42:37;22.60;70.60
81935;DHT22;71405;47.674;-2.050;2023-09-18T05:45:03;22.60;70.60
81935;DHT22;71405;47.674;-2.050;2023-09-18T05:47:33;22.60;70.50
81935;DHT22;71405;47.674;-2.050;2023-09-18T05:50:07;22.60;70.60
81935;DHT22;71405;47.674;-2.050;2023-09-18T05:52:34;22.60;70.50
81935;DHT22;71405;47.674;-2.050;2023-09-18T05:55:00;22.60;70.60
81935;DHT22;71405;47.674;-2.050;2023-09-18T05:57:26;22.60;70.60
81935;DHT22;71405;47.674;-2.050;2023-09-18T05:59:55;22.60;70.60
81935;DHT22;71405;47.674;-2.050;2023-09-18T06:02:21;22.60;70.70
81935;DHT22;71405;47.674;-2.050;2023-09-18T06:04:46;22.60;70.70
81935;DHT22;71405;47.674;-2.050;2023-09-18T06:07:12;22.60;70.90
81935;DHT22;71405;47.674;-2.050;2023-09-18T06:09:39;22.60;71.00
81935;DHT22;71405;47.674;-2.050;2023-09-18T06:12:05;22.50;71.00
81935;DHT22;71405;47.674;-2.050;2023-09-18T06:14:31;22.50;71.20
81935;DHT22;71405;47.674;-2.050;2023-09-18T06:16:59;22.50;71.50
81935;DHT22;71405;47.674;-2.050;2023-09-18T06:19:25;22.50;71.60
81935;DHT22;71405;47.674;-2.050;2023-09-18T06:21:50;22.40;71.80
81935;DHT22;71405;47.674;-2.050;2023-09-18T06:24:16;22.40;71.80
81935;DHT22;71405;47.674;-2.050;2023-09-18T06:26:42;22.40;71.90
81935;DHT22;71405;47.674;-2.050;2023-09-18T06:29:07;22.40;71.90
81935;DHT22;71405;47.674;-2.050;2023-09-18T06:31:35;22.40;71.80
81935;DHT22;71405;47.674;-2.050;2023-09-18T06:34:00;22.40;71.80
81935;DHT22;71405;47.674;-2.050;2023-09-18T06:36:26;22.40;71.80
81935;DHT22;71405;47.674;-2.050;2023-09-18T06:38:52;22.40;72.00
81935;DHT22;71405;47.674;-2.050;2023-09-18T06:41:18;22.40;71.90
81935;DHT22;71405;47.674;-2.050;2023-09-18T06:43:44;22.40;72.00
81935;DHT22;71405;47.674;-2.050;2023-09-18T06:46:10;22.40;72.10
81935;DHT22;71405;47.674;-2.050;2023-09-18T06:48:35;22.40;72.10
81935;DHT22;71405;47.674;-2.050;2023-09-18T06:51:01;22.40;72.10
81935;DHT22;71405;47.674;-2.050;2023-09-18T06:53:27;22.40;72.10
81935;DHT22;71405;47.674;-2.050;2023-09-18T06:55:53;22.40;72.20
81935;DHT22;71405;47.674;-2.050;2023-09-18T06:58:19;22.40;72.30
81935;DHT22;71405;47.674;-2.050;2023-09-18T07:00:45;22.40;72.30
81935;DHT22;71405;47.674;-2.050;2023-09-18T07:03:11;22.40;72.30
81935;DHT22;71405;47.674;-2.050;2023-09-18T07:05:37;22.40;72.40
81935;DHT22;71405;47.674;-2.050;2023-09-18T07:08:03;22.40;72.40
81935;DHT22;71405;47.674;-2.050;2023-09-18T07:10:31;22.40;72.40
81935;DHT22;71405;47.674;-2.050;2023-09-18T07:12:58;22.40;72.50
81935;DHT22;71405;47.674;-2.050;2023-09-18T07:15:24;22.40;72.40
81935;DHT22;71405;47.674;-2.050;2023-09-18T07:17:49;22.40;72.40
81935;DHT22;71405;47.674;-2.050;2023-09-18T07:20:15;22.40;72.40
81935;DHT22;71405;47.674;-2.050;2023-09-18T07:22:45;22.40;72.40
81935;DHT22;71405;47.674;-2.050;2023-09-18T07:25:12;22.40;72.50
81935;DHT22;71405;47.674;-2.050;2023-09-18T07:27:37;22.40;72.50
81935;DHT22;71405;47.674;-2.050;2023-09-18T07:30:06;22.40;72.60
81935;DHT22;71405;47.674;-2.050;2023-09-18T07:32:32;22.40;72.60
81935;DHT22;71405;47.674;-2.050;2023-09-18T07:34:58;22.40;72.50
81935;DHT22;71405;47.674;-2.050;2023-09-18T07:37:23;22.50;72.70
81935;DHT22;71405;47.674;-2.050;2023-09-18T07:39:49;22.40;72.90
81935;DHT22;71405;47.674;-2.050;2023-09-18T07:42:15;22.30;72.90
81935;DHT22;71405;47.674;-2.050;2023-09-18T07:44:41;22.20;73.30
81935;DHT22;71405;47.674;-2.050;2023-09-18T07:47:06;22.20;73.50
81935;DHT22;71405;47.674;-2.050;2023-09-18T07:49:33;22.20;73.60
81935;DHT22;71405;47.674;-2.050;2023-09-18T07:51:59;22.10;73.70
81935;DHT22;71405;47.674;-2.050;2023-09-18T07:54:24;22.20;73.50
81935;DHT22;71405;47.674;-2.050;2023-09-18T07:56:50;22.10;73.90
81935;DHT22;71405;47.674;-2.050;2023-09-18T07:59:16;22.00;74.10
81935;DHT22;71405;47.674;-2.050;2023-09-18T08:01:41;22.00;74.10
81935;DHT22;71405;47.674;-2.050;2023-09-18T08:04:07;22.00;73.90
81935;DHT22;71405;47.674;-2.050;2023-09-18T08:06:33;22.10;73.30
81935;DHT22;71405;47.674;-2.050;2023-09-18T08:08:59;22.10;72.70
81935;DHT22;71405;47.674;-2.050;2023-09-18T08:11:25;22.10;72.10
81935;DHT22;71405;47.674;-2.050;2023-09-18T08:13:51;22.10;71.60
81935;DHT22;71405;47.674;-2.050;2023-09-18T08:16:16;22.00;71.20
81935;DHT22;71405;47.674;-2.050;2023-09-18T08:18:43;22.00;71.40
81935;DHT22;71405;47.674;-2.050;2023-09-18T08:21:09;22.00;71.60
81935;DHT22;71405;47.674;-2.050;2023-09-18T08:23:37;22.00;71.40
81935;DHT22;71405;47.674;-2.050;2023-09-18T08:26:03;22.00;70.60
81935;DHT22;71405;47.674;-2.050;2023-09-18T08:28:29;22.00;70.30
81935;DHT22;71405;47.674;-2.050;2023-09-18T08:30:55;22.00;70.00
81935;DHT22;71405;47.674;-2.050;2023-09-18T08:33:21;22.00;70.10
81935;DHT22;71405;47.674;-2.050;2023-09-18T08:35:47;22.10;69.80
81935;DHT22;71405;47.674;-2.050;2023-09-18T08:38:15;22.10;69.90
81935;DHT22;71405;47.674;-2.050;2023-09-18T08:40:41;22.10;69.90
81935;DHT22;71405;47.674;-2.050;2023-09-18T08:43:08;22.00;70.10
81935;DHT22;71405;47.674;-2.050;2023-09-18T08:45:55;22.00;69.70
81935;DHT22;71405;47.674;-2.050;2023-09-18T08:48:28;22.00;69.90
81935;DHT22;71405;47.674;-2.050;2023-09-18T08:51:04;22.10;69.70
81935;DHT22;71405;47.674;-2.050;2023-09-18T08:53:35;22.10;69.80
81935;DHT22;71405;47.674;-2.050;2023-09-18T08:56:03;22.10;70.00
81935;DHT22;71405;47.674;-2.050;2023-09-18T08:58:33;22.10;69.50
81935;DHT22;71405;47.674;-2.050;2023-09-18T09:01:02;22.10;69.20
81935;DHT22;71405;47.674;-2.050;2023-09-18T09:03:29;22.10;68.60
81935;DHT22;71405;47.674;-2.050;2023-09-18T09:05:56;22.10;68.60
81935;DHT22;71405;47.674;-2.050;2023-09-18T09:08:22;22.10;68.30
81935;DHT22;71405;47.674;-2.050;2023-09-18T09:10:48;22.10;68.10
81935;DHT22;71405;47.674;-2.050;2023-09-18T09:13:14;22.10;68.00
81935;DHT22;71405;47.674;-2.050;2023-09-18T09:15:47;22.10;68.10
81935;DHT22;71405;47.674;-2.050;2023-09-18T09:18:15;22.10;67.40
81935;DHT22;71405;47.674;-2.050;2023-09-18T09:20:41;22.00;67.50
81935;DHT22;71405;47.674;-2.050;2023-09-18T09:23:17;22.00;67.30
81935;DHT22;71405;47.674;-2.050;2023-09-18T09:25:43;22.00;67.20
81935;DHT22;71405;47.674;-2.050;2023-09-18T09:28:09;22.10;67.30
81935;DHT22;71405;47.674;-2.050;2023-09-18T09:30:36;22.10;67.40
81935;DHT22;71405;47.674;-2.050;2023-09-18T09:33:03;22.10;67.20
81935;DHT22;71405;47.674;-2.050;2023-09-18T09:35:32;22.10;67.40
81935;DHT22;71405;47.674;-2.050;2023-09-18T09:38:12;22.10;67.30
81935;DHT22;71405;47.674;-2.050;2023-09-18T09:40:42;22.20;67.40
81935;DHT22;71405;47.674;-2.050;2023-09-18T09:43:11;22.20;67.30
81935;DHT22;71405;47.674;-2.050;2023-09-18T09:45:40;22.20;67.40
81935;DHT22;71405;47.674;-2.050;2023-09-18T09:48:06;22.20;67.30
81935;DHT22;71405;47.674;-2.050;2023-09-18T09:50:33;22.20;67.30
81935;DHT22;71405;47.674;-2.050;2023-09-18T09:52:59;22.20;67.40
81935;DHT22;71405;47.674;-2.050;2023-09-18T09:55:29;22.30;67.20
81935;DHT22;71405;47.674;-2.050;2023-09-18T10:00:32;22.20;67.20
81935;DHT22;71405;47.674;-2.050;2023-09-18T10:03:07;22.20;67.20
81935;DHT22;71405;47.674;-2.050;2023-09-18T10:05:42;22.20;67.10
81935;DHT22;71405;47.674;-2.050;2023-09-18T10:08:18;22.20;67.20
81935;DHT22;71405;47.674;-2.050;2023-09-18T10:10:50;22.20;67.10
81935;DHT22;71405;47.674;-2.050;2023-09-18T10:16:00;22.20;66.90
81935;DHT22;71405;47.674;-2.050;2023-09-18T10:18:44;22.20;66.90
81935;DHT22;71405;47.674;-2.050;2023-09-18T10:21:20;22.20;66.70
81935;DHT22;71405;47.674;-2.050;2023-09-18T10:24:06;22.30;66.60
81935;DHT22;71405;47.674;-2.050;2023-09-18T10:26:39;22.30;66.10
81935;DHT22;71405;47.674;-2.050;2023-09-18T10:29:07;22.20;65.90
81935;DHT22;71405;47.674;-2.050;2023-09-18T10:31:38;22.20;65.40
81935;DHT22;71405;47.674;-2.050;2023-09-18T10:34:06;22.20;65.60
81935;DHT22;71405;47.674;-2.050;2023-09-18T10:36:33;22.20;64.80
81935;DHT22;71405;47.674;-2.050;2023-09-18T10:38:59;22.30;65.30
81935;DHT22;71405;47.674;-2.050;2023-09-18T10:41:26;22.30;65.20
81935;DHT22;71405;47.674;-2.050;2023-09-18T10:43:53;22.30;65.40
81935;DHT22;71405;47.674;-2.050;2023-09-18T10:46:21;22.30;65.20
81935;DHT22;71405;47.674;-2.050;2023-09-18T10:48:48;22.40;65.40
81935;DHT22;71405;47.674;-2.050;2023-09-18T10:51:14;22.40;65.20
81935;DHT22;71405;47.674;-2.050;2023-09-18T10:53:40;22.40;65.10
81935;DHT22;71405;47.674;-2.050;2023-09-18T10:56:06;22.40;64.80
81935;DHT22;71405;47.674;-2.050;2023-09-18T10:58:33;22.40;64.90
81935;DHT22;71405;47.674;-2.050;2023-09-18T11:01:05;22.40;64.70
81935;DHT22;71405;47.674;-2.050;2023-09-18T11:03:33;22.40;64.20
81935;DHT22;71405;47.674;-2.050;2023-09-18T11:06:04;22.40;64.30
81935;DHT22;71405;47.674;-2.050;2023-09-18T11:08:34;22.40;63.80
81935;DHT22;71405;47.674;-2.050;2023-09-18T11:11:06;22.40;63.40
81935;DHT22;71405;47.674;-2.050;2023-09-18T11:13:39;22.50;63.60
81935;DHT22;71405;47.674;-2.050;2023-09-18T11:21:29;22.60;64.50
81935;DHT22;71405;47.674;-2.050;2023-09-18T11:26:35;22.60;64.80
81935;DHT22;71405;47.674;-2.050;2023-09-18T11:29:05;22.60;64.40
81935;DHT22;71405;47.674;-2.050;2023-09-18T11:34:13;22.60;64.30
81935;DHT22;71405;47.674;-2.050;2023-09-18T11:36:40;22.60;64.90
81935;DHT22;71405;47.674;-2.050;2023-09-18T11:39:06;22.60;64.70
81935;DHT22;71405;47.674;-2.050;2023-09-18T11:41:35;22.60;65.20
81935;DHT22;71405;47.674;-2.050;2023-09-18T11:49:24;23.20;66.20
81935;DHT22;71405;47.674;-2.050;2023-09-18T11:51:54;22.70;66.40
81935;DHT22;71405;47.674;-2.050;2023-09-18T11:54:20;22.60;64.80
81935;DHT22;71405;47.674;-2.050;2023-09-18T11:56:48;22.60;64.70
81935;DHT22;71405;47.674;-2.050;2023-09-18T11:59:14;22.60;65.60
81935;DHT22;71405;47.674;-2.050;2023-09-18T12:01:40;22.60;66.00
81935;DHT22;71405;47.674;-2.050;2023-09-18T12:04:06;22.70;65.40
81935;DHT22;71405;47.674;-2.050;2023-09-18T12:06:40;22.70;65.70
81935;DHT22;71405;47.674;-2.050;2023-09-18T12:09:06;22.70;65.00
81935;DHT22;71405;47.674;-2.050;2023-09-18T12:11:33;22.70;65.10
81935;DHT22;71405;47.674;-2.050;2023-09-18T12:14:04;22.70;64.00
81935;DHT22;71405;47.674;-2.050;2023-09-18T12:16:31;22.70;64.60
81935;DHT22;71405;47.674;-2.050;2023-09-18T12:18:56;22.70;64.80
81935;DHT22;71405;47.674;-2.050;2023-09-18T12:21:23;22.70;65.40
81935;DHT22;71405;47.674;-2.050;2023-09-18T12:23:49;22.70;65.10
81935;DHT22;71405;47.674;-2.050;2023-09-18T12:26:16;22.70;65.30
81935;DHT22;71405;47.674;-2.050;2023-09-18T12:28:45;22.80;64.40
81935;DHT22;71405;47.674;-2.050;2023-09-18T12:31:14;22.80;64.10
81935;DHT22;71405;47.674;-2.050;2023-09-18T12:33:42;22.90;63.40
81935;DHT22;71405;47.674;-2.050;2023-09-18T12:36:10;22.90;64.00
81935;DHT22;71405;47.674;-2.050;2023-09-18T12:38:37;22.90;63.50
81935;DHT22;71405;47.674;-2.050;2023-09-18T12:41:04;23.00;63.60
81935;DHT22;71405;47.674;-2.050;2023-09-18T12:43:37;23.00;63.10
81935;DHT22;71405;47.674;-2.050;2023-09-18T12:46:04;22.90;63.50
81935;DHT22;71405;47.674;-2.050;2023-09-18T12:48:30;22.80;63.80
81935;DHT22;71405;47.674;-2.050;2023-09-18T12:51:02;22.80;63.30
81935;DHT22;71405;47.674;-2.050;2023-09-18T12:53:29;22.70;63.90
81935;DHT22;71405;47.674;-2.050;2023-09-18T12:56:04;22.70;64.50
81935;DHT22;71405;47.674;-2.050;2023-09-18T12:58:31;22.60;63.90
81935;DHT22;71405;47.674;-2.050;2023-09-18T13:00:57;22.60;65.40
81935;DHT22;71405;47.674;-2.050;2023-09-18T13:03:22;22.60;65.40
81935;DHT22;71405;47.674;-2.050;2023-09-18T13:05:48;22.70;65.70
81935;DHT22;71405;47.674;-2.050;2023-09-18T13:08:21;22.70;65.50
81935;DHT22;71405;47.674;-2.050;2023-09-18T13:10:48;22.70;65.50
81935;DHT22;71405;47.674;-2.050;2023-09-18T13:13:19;22.70;65.80
81935;DHT22;71405;47.674;-2.050;2023-09-18T13:15:45;22.80;65.70
81935;DHT22;71405;47.674;-2.050;2023-09-18T13:18:13;22.80;65.50
81935;DHT22;71405;47.674;-2.050;2023-09-18T13:20:39;22.90;65.80
81935;DHT22;71405;47.674;-2.050;2023-09-18T13:23:06;22.90;65.70
81935;DHT22;71405;47.674;-2.050;2023-09-18T13:25:37;22.90;66.00
81935;DHT22;71405;47.674;-2.050;2023-09-18T13:28:06;22.90;65.90
81935;DHT22;71405;47.674;-2.050;2023-09-18T13:30:33;23.00;65.90
81935;DHT22;71405;47.674;-2.050;2023-09-18T13:33:09;23.00;65.90
81935;DHT22;71405;47.674;-2.050;2023-09-18T13:35:43;23.00;65.80
81935;DHT22;71405;47.674;-2.050;2023-09-18T13:38:10;23.10;65.80
81935;DHT22;71405;47.674;-2.050;2023-09-18T13:40:40;23.10;65.60
81935;DHT22;71405;47.674;-2.050;2023-09-18T13:43:07;23.10;65.40
81935;DHT22;71405;47.674;-2.050;2023-09-18T13:45:34;23.10;64.50
81935;DHT22;71405;47.674;-2.050;2023-09-18T13:48:06;23.20;64.20
81935;DHT22;71405;47.674;-2.050;2023-09-18T13:50:32;23.20;64.10
81935;DHT22;71405;47.674;-2.050;2023-09-18T13:52:58;23.20;64.10
81935;DHT22;71405;47.674;-2.050;2023-09-18T13:55:25;23.20;64.10
81935;DHT22;71405;47.674;-2.050;2023-09-18T13:57:51;23.20;64.10
81935;DHT22;71405;47.674;-2.050;2023-09-18T14:00:17;23.20;64.10
81935;DHT22;71405;47.674;-2.050;2023-09-18T14:02:43;23.20;63.70
81935;DHT22;71405;47.674;-2.050;2023-09-18T14:05:09;23.30;63.80
81935;DHT22;71405;47.674;-2.050;2023-09-18T14:07:37;23.30;63.90
81935;DHT22;71405;47.674;-2.050;2023-09-18T14:10:10;23.30;63.90
81935;DHT22;71405;47.674;-2.050;2023-09-18T14:12:39;23.40;62.90
81935;DHT22;71405;47.674;-2.050;2023-09-18T14:46:59;23.80;62.30
81935;DHT22;71405;47.674;-2.050;2023-09-18T14:49:25;23.40;62.40
81935;DHT22;71405;47.674;-2.050;2023-09-18T14:51:53;23.50;62.40
81935;DHT22;71405;47.674;-2.050;2023-09-18T14:54:19;23.40;62.30
81935;DHT22;71405;47.674;-2.050;2023-09-18T14:56:45;23.40;62.30
81935;DHT22;71405;47.674;-2.050;2023-09-18T14:59:12;23.30;61.40
81935;DHT22;71405;47.674;-2.050;2023-09-18T15:01:38;23.30;61.50
81935;DHT22;71405;47.674;-2.050;2023-09-18T15:04:04;23.20;60.70
81935;DHT22;71405;47.674;-2.050;2023-09-18T15:06:30;23.20;60.70
81935;DHT22;71405;47.674;-2.050;2023-09-18T15:08:56;23.10;60.80
81935;DHT22;71405;47.674;-2.050;2023-09-18T15:11:22;23.10;60.60
81935;DHT22;71405;47.674;-2.050;2023-09-18T15:13:49;23.10;60.50
81935;DHT22;71405;47.674;-2.050;2023-09-18T15:16:14;23.10;60.00
81935;DHT22;71405;47.674;-2.050;2023-09-18T15:18:40;23.10;60.20
81935;DHT22;71405;47.674;-2.050;2023-09-18T15:21:06;23.10;60.70
81935;DHT22;71405;47.674;-2.050;2023-09-18T15:23:32;23.10;60.30
81935;DHT22;71405;47.674;-2.050;2023-09-18T15:25:58;23.10;59.90
81935;DHT22;71405;47.674;-2.050;2023-09-18T15:28:23;23.10;59.90
81935;DHT22;71405;47.674;-2.050;2023-09-18T15:30:53;23.00;59.40
81935;DHT22;71405;47.674;-2.050;2023-09-18T15:33:19;23.00;59.60
81935;DHT22;71405;47.674;-2.050;2023-09-18T15:35:48;23.00;59.60
81935;DHT22;71405;47.674;-2.050;2023-09-18T15:38:14;23.00;59.60
81935;DHT22;71405;47.674;-2.050;2023-09-18T15:40:40;23.00;59.30
81935;DHT22;71405;47.674;-2.050;2023-09-18T15:43:05;23.00;59.20
81935;DHT22;71405;47.674;-2.050;2023-09-18T15:45:31;23.00;58.90
81935;DHT22;71405;47.674;-2.050;2023-09-18T15:48:01;23.00;58.40
81935;DHT22;71405;47.674;-2.050;2023-09-18T15:50:26;23.00;58.30
81935;DHT22;71405;47.674;-2.050;2023-09-18T15:52:55;23.00;58.00
81935;DHT22;71405;47.674;-2.050;2023-09-18T15:55:21;23.00;58.20
81935;DHT22;71405;47.674;-2.050;2023-09-18T15:57:46;23.00;58.70
81935;DHT22;71405;47.674;-2.050;2023-09-18T16:00:13;23.00;58.50
81935;DHT22;71405;47.674;-2.050;2023-09-18T16:02:39;23.00;58.80
81935;DHT22;71405;47.674;-2.050;2023-09-18T16:05:06;23.10;58.50
81935;DHT22;71405;47.674;-2.050;2023-09-18T16:07:32;23.10;58.40
81935;DHT22;71405;47.674;-2.050;2023-09-18T16:09:59;23.10;58.40